createdAt,value
2023-01-19T00:00:45.451Z,87.94
2023-01-19T00:03:16.144Z,88.31
2023-01-19T00:05:43.959Z,88.75
2023-01-19T00:08:17.497Z,88.54
2023-01-19T00:10:46.356Z,88.43
2023-01-19T00:13:13.563Z,89.12
2023-01-19T00:15:40.116Z,88.28
2023-01-19T00:18:07.600Z,88.11
2023-01-19T00:20:38.053Z,86.79
2023-01-19T00:23:04.843Z,86.28
2023-01-19T00:25:31.691Z,86.30
2023-01-19T00:28:00.510Z,87.02
2023-01-19T00:30:28.047Z,86.43
2023-01-19T00:32:54.552Z,86.28
2023-01-19T00:35:21.124Z,85.83
2023-01-19T00:37:47.662Z,86.74
2023-01-19T00:40:14.315Z,84.23
2023-01-19T00:42:44.189Z,84.82
2023-01-19T00:45:13.583Z,85.27
2023-01-19T00:47:40.299Z,84.31
2023-01-19T00:50:11.861Z,84.11
2023-01-19T00:52:39.867Z,84.28
2023-01-19T00:55:09.174Z,84.16
2023-01-19T00:57:35.800Z,85.11
2023-01-19T01:00:06.435Z,84.63
2023-01-19T01:02:34.164Z,84.47
2023-01-19T01:05:02.800Z,85.15
2023-01-19T01:07:30.405Z,84.88
2023-01-19T01:09:57.455Z,85.23
2023-01-19T01:12:24.612Z,86.02
2023-01-19T01:14:51.187Z,85.58
2023-01-19T01:17:25.103Z,84.84
2023-01-19T01:19:52.481Z,85.07
2023-01-19T01:22:19.611Z,86.38
2023-01-19T01:24:46.226Z,87.02
2023-01-19T01:27:13.297Z,87.26
2023-01-19T01:29:41.238Z,87.85
2023-01-19T01:32:08.479Z,87.22
2023-01-19T01:34:35.330Z,87.48
2023-01-19T01:37:02.890Z,87.98
2023-01-19T01:39:29.567Z,88.48
2023-01-19T01:41:56.091Z,87.66
2023-01-19T01:44:52.088Z,86.92
2023-01-19T01:47:39.684Z,88.30
2023-01-19T01:50:17.192Z,88.64
2023-01-19T01:53:06.503Z,88.17
2023-01-19T01:55:38.053Z,87.89
2023-01-19T01:58:08.729Z,87.50
2023-01-19T02:00:54.304Z,87.33
2023-01-19T02:03:23.428Z,87.69
2023-01-19T02:05:50.848Z,88.26
2023-01-19T02:08:46.927Z,87.48
2023-01-19T02:11:32.344Z,88.95
2023-01-19T02:13:59.009Z,88.30
2023-01-19T02:16:25.581Z,88.52
2023-01-19T02:18:52.452Z,88.96
2023-01-19T02:21:57.039Z,88.71
2023-01-19T02:24:24.401Z,88.41
2023-01-19T02:26:51.998Z,86.68
2023-01-19T02:29:20.947Z,87.59
2023-01-19T02:31:47.776Z,87.29
2023-01-19T02:34:19.944Z,86.58
2023-01-19T02:36:56.160Z,87.88
2023-01-19T02:39:26.847Z,88.04
2023-01-19T02:41:59.740Z,87.23
2023-01-19T02:44:27.791Z,85.80
2023-01-19T02:46:54.833Z,85.17
2023-01-19T02:49:21.391Z,85.27
2023-01-19T02:51:48.482Z,84.45
2023-01-19T02:54:27.164Z,84.91
2023-01-19T02:56:56.657Z,84.13
2023-01-19T02:59:26.288Z,84.25
2023-01-19T03:02:17.722Z,84.84
2023-01-19T03:05:22.965Z,84.26
2023-01-19T03:08:08.011Z,83.65
2023-01-19T03:10:53.173Z,83.41
2023-01-19T03:13:47.298Z,83.37
2023-01-19T03:16:25.580Z,82.32
2023-01-19T03:19:03.009Z,82.60
2023-01-19T03:21:33.966Z,83.29
2023-01-19T03:24:04.657Z,83.02
2023-01-19T03:26:34.938Z,83.03
2023-01-19T03:29:04.039Z,84.05
2023-01-19T03:31:33.062Z,84.32
2023-01-19T03:34:07.860Z,84.51
2023-01-19T03:36:40.482Z,84.80
2023-01-19T03:39:09.594Z,86.12
2023-01-19T03:41:38.358Z,84.39
2023-01-19T03:44:06.239Z,85.82
2023-01-19T03:46:33.911Z,84.98
2023-01-19T03:49:00.576Z,84.55
2023-01-19T03:51:27.401Z,85.38
2023-01-19T03:53:53.927Z,85.58
2023-01-19T03:56:25.257Z,83.34
2023-01-19T03:58:52.440Z,82.28
2023-01-19T04:01:23.406Z,81.23
2023-01-19T04:03:50.811Z,80.70
2023-01-19T04:06:18.025Z,79.11
2023-01-19T04:08:44.606Z,79.93
2023-01-19T04:11:11.594Z,79.32
2023-01-19T04:13:38.133Z,79.66
2023-01-19T04:16:05.568Z,79.91
2023-01-19T04:18:34.932Z,79.74
2023-01-19T04:21:06.650Z,80.77
2023-01-19T04:23:33.801Z,80.88
2023-01-19T04:26:03.174Z,81.34
2023-01-19T04:28:30.648Z,81.42
2023-01-19T04:30:57.231Z,81.10
2023-01-19T04:33:24.512Z,81.93
2023-01-19T04:35:54.419Z,82.49
2023-01-19T04:38:21.947Z,83.90
2023-01-19T04:40:53.429Z,84.99
2023-01-19T04:43:21.206Z,83.89
2023-01-19T04:45:49.078Z,81.79
2023-01-19T04:48:18.370Z,83.97
2023-01-19T04:50:44.931Z,84.59
2023-01-19T04:53:13.637Z,84.55
2023-01-19T04:55:40.503Z,85.56
2023-01-19T04:58:07.091Z,85.74
2023-01-19T05:00:33.831Z,86.09
2023-01-19T05:03:01.638Z,85.46
2023-01-19T05:05:28.661Z,81.28
2023-01-19T05:07:55.353Z,81.42
2023-01-19T05:10:22.149Z,79.44
2023-01-19T05:12:48.834Z,77.87
2023-01-19T05:15:15.401Z,76.39
2023-01-19T05:17:42.087Z,75.81
2023-01-19T05:20:11.105Z,74.92
2023-01-19T05:22:39.190Z,76.14
2023-01-19T05:25:08.781Z,74.55
2023-01-19T05:27:36.445Z,74.39
2023-01-19T05:30:05.022Z,74.00
2023-01-19T05:32:31.612Z,73.25
2023-01-19T05:34:58.177Z,72.71
2023-01-19T05:37:24.769Z,73.67
2023-01-19T05:39:51.466Z,73.99
2023-01-19T05:42:18.007Z,73.28
2023-01-19T05:44:44.608Z,73.36
2023-01-19T05:47:11.788Z,73.85
2023-01-19T05:49:38.428Z,75.88
2023-01-19T05:52:04.957Z,75.96
2023-01-19T05:54:31.545Z,76.72
2023-01-19T05:56:58.245Z,75.41
2023-01-19T05:59:24.806Z,74.43
2023-01-19T06:01:52.160Z,74.89
2023-01-19T06:04:19.965Z,73.75
2023-01-19T06:06:50.329Z,72.76
2023-01-19T06:09:17.573Z,73.14
2023-01-19T06:11:45.245Z,76.01
2023-01-19T06:14:12.012Z,79.18
2023-01-19T06:16:38.953Z,79.83
2023-01-19T06:19:05.937Z,83.93
2023-01-19T06:21:33.221Z,84.90
2023-01-19T06:23:59.897Z,84.95
2023-01-19T06:26:26.436Z,85.62
2023-01-19T06:28:52.988Z,87.06
2023-01-19T06:31:19.576Z,87.55
2023-01-19T06:33:46.164Z,86.57
2023-01-19T06:36:12.845Z,86.72
2023-01-19T06:38:39.391Z,85.53
2023-01-19T06:41:05.979Z,84.52
2023-01-19T06:43:32.755Z,84.99
2023-01-19T06:46:00.679Z,86.22
2023-01-19T06:48:27.653Z,85.82
2023-01-19T06:50:54.216Z,86.67
2023-01-19T06:53:22.273Z,86.66
2023-01-19T06:55:48.974Z,86.99
2023-01-19T06:58:15.771Z,84.43
2023-01-19T07:00:43.081Z,83.00
2023-01-19T07:03:16.106Z,84.17
2023-01-19T07:05:42.731Z,83.41
2023-01-19T07:08:09.315Z,83.90
2023-01-19T07:11:21.524Z,82.82
2023-01-19T07:13:22.830Z,82.99
2023-01-19T07:15:49.434Z,82.02
2023-01-19T07:18:15.956Z,83.13
2023-01-19T07:20:44.344Z,83.82
2023-01-19T07:23:10.865Z,83.05
2023-01-19T07:25:38.284Z,83.00
2023-01-19T07:28:04.883Z,83.56
2023-01-19T07:30:31.437Z,83.05
2023-01-19T07:32:59.076Z,83.92
2023-01-19T07:35:25.914Z,84.93
2023-01-19T07:37:52.580Z,84.16
2023-01-19T07:40:19.304Z,83.68
2023-01-19T07:42:48.771Z,84.61
2023-01-19T07:45:23.234Z,85.66
2023-01-19T07:47:50.051Z,83.49
2023-01-19T07:50:21.230Z,83.24
2023-01-19T07:52:50.640Z,84.01
2023-01-19T07:55:17.575Z,83.42
2023-01-19T07:57:44.262Z,82.48
2023-01-19T08:00:11.599Z,83.46
2023-01-19T08:02:38.350Z,84.65
2023-01-19T08:05:05.210Z,83.42
2023-01-19T08:07:33.480Z,82.65
2023-01-19T08:10:00.004Z,81.95
2023-01-19T08:12:26.587Z,81.74
2023-01-19T08:14:53.127Z,80.29
2023-01-19T08:17:19.709Z,79.56
2023-01-19T08:19:46.242Z,81.66
2023-01-19T08:22:12.742Z,80.50
2023-01-19T08:24:39.254Z,81.52
2023-01-19T08:27:06.120Z,81.22
2023-01-19T08:29:33.669Z,82.04
2023-01-19T08:32:02.232Z,82.22
2023-01-19T08:34:32.686Z,81.99
2023-01-19T08:36:59.496Z,81.10
2023-01-19T08:39:27.363Z,80.65
2023-01-19T08:41:54.248Z,79.43
2023-01-19T08:44:20.871Z,79.29
2023-01-19T08:46:47.883Z,78.94
2023-01-19T08:49:15.807Z,79.94
2023-01-19T08:51:42.365Z,79.48
2023-01-19T08:54:09.867Z,80.03
2023-01-19T08:56:36.816Z,79.45
2023-01-19T08:59:09.906Z,80.86
2023-01-19T09:01:37.651Z,79.85
2023-01-19T09:04:04.480Z,80.06
2023-01-19T09:06:31.031Z,79.75
2023-01-19T09:08:57.764Z,79.64
2023-01-19T09:11:24.489Z,79.65
2023-01-19T09:13:51.032Z,78.16
2023-01-19T09:16:17.694Z,78.15
2023-01-19T09:18:46.045Z,78.89
2023-01-19T09:21:13.879Z,78.75
2023-01-19T09:23:40.547Z,79.20
2023-01-19T09:26:07.406Z,79.00
2023-01-19T09:28:34.078Z,80.62
2023-01-19T09:31:05.519Z,80.30
2023-01-19T09:33:32.132Z,80.21
2023-01-19T09:35:58.978Z,80.49
2023-01-19T09:38:27.008Z,79.67
2023-01-19T09:40:56.676Z,79.92
2023-01-19T09:43:39.421Z,78.62
2023-01-19T09:46:21.119Z,76.47
2023-01-19T09:48:51.809Z,75.18
2023-01-19T09:51:28.168Z,73.40
2023-01-19T09:54:17.860Z,73.08
2023-01-19T09:56:46.208Z,73.52
2023-01-19T09:59:21.943Z,71.93
2023-01-19T10:02:18.846Z,73.37
2023-01-19T10:05:02.565Z,73.07
2023-01-19T10:07:54.542Z,75.24
2023-01-19T10:10:30.854Z,76.13
2023-01-19T10:13:09.748Z,75.88
2023-01-19T10:15:36.390Z,76.46
2023-01-19T10:18:20.030Z,76.05
2023-01-19T10:20:56.452Z,76.13
2023-01-19T10:23:38.540Z,75.17
2023-01-19T10:26:26.357Z,75.12
2023-01-19T10:28:57.564Z,74.64
2023-01-19T10:31:25.106Z,73.92
2023-01-19T10:33:52.775Z,73.05
2023-01-19T10:36:29.774Z,71.56
2023-01-19T10:38:56.328Z,71.16
2023-01-19T10:41:31.707Z,71.08
2023-01-19T10:44:04.336Z,71.96
2023-01-19T10:46:42.145Z,72.54
2023-01-19T10:49:28.992Z,71.97
2023-01-19T10:51:58.166Z,70.92
2023-01-19T10:54:27.486Z,71.78
2023-01-19T10:57:21.581Z,70.59
2023-01-19T10:59:50.869Z,70.45
2023-01-19T11:02:29.456Z,69.15
2023-01-19T11:05:23.126Z,69.42
2023-01-19T11:07:49.682Z,69.51
2023-01-19T11:10:16.324Z,70.16
2023-01-19T11:12:45.864Z,69.12
2023-01-19T11:15:22.907Z,69.73
2023-01-19T11:17:50.486Z,69.31
2023-01-19T11:20:30.493Z,68.29
2023-01-19T11:23:18.457Z,70.34
2023-01-19T11:25:50.249Z,69.11
2023-01-19T11:28:40.003Z,70.14
2023-01-19T11:31:15.873Z,69.43
2023-01-19T11:33:49.778Z,69.62
2023-01-19T11:36:24.586Z,69.97
2023-01-19T11:38:53.796Z,70.56
2023-01-19T11:41:33.125Z,71.78
2023-01-19T11:44:21.588Z,69.66
2023-01-19T11:46:51.996Z,68.61
2023-01-19T11:49:40.458Z,67.30
2023-01-19T11:52:16.275Z,68.69
2023-01-19T11:54:51.852Z,71.02
2023-01-19T11:57:18.449Z,70.46
2023-01-19T11:59:45.071Z,70.74
2023-01-19T12:02:53.019Z,70.75
2023-01-19T12:05:21.561Z,70.87
2023-01-19T12:07:50.959Z,70.28
2023-01-19T12:10:31.550Z,70.96
2023-01-19T12:12:59.212Z,69.46
2023-01-19T12:16:08.712Z,66.58
2023-01-19T12:18:50.126Z,64.18
2023-01-19T12:21:19.270Z,65.96
2023-01-19T12:24:07.641Z,66.19
2023-01-19T12:26:40.873Z,65.36
2023-01-19T12:29:17.779Z,67.30
2023-01-19T12:31:44.542Z,67.32
2023-01-19T12:34:27.241Z,68.14
2023-01-19T12:36:58.060Z,65.95
2023-01-19T12:39:25.946Z,66.39
2023-01-19T12:42:18.125Z,65.02
2023-01-19T12:44:47.188Z,65.11
2023-01-19T12:47:13.655Z,64.56
2023-01-19T12:49:46.431Z,64.47
2023-01-19T12:52:26.841Z,63.23
2023-01-19T12:55:05.455Z,62.71
2023-01-19T12:57:48.108Z,63.45
2023-01-19T13:00:23.573Z,63.18
2023-01-19T13:02:55.717Z,63.64
2023-01-19T13:05:24.493Z,63.08
2023-01-19T13:08:03.354Z,62.13
2023-01-19T13:11:09.612Z,63.10
2023-01-19T13:13:46.279Z,62.53
2023-01-19T13:16:20.639Z,62.20
2023-01-19T13:18:58.593Z,61.86
2023-01-19T13:21:33.301Z,61.14
2023-01-19T13:24:05.820Z,61.83
2023-01-19T13:26:35.247Z,62.31
2023-01-19T13:29:16.470Z,61.78
2023-01-19T13:31:49.052Z,61.45
2023-01-19T13:34:19.832Z,62.90
2023-01-19T13:36:51.295Z,62.23
2023-01-19T13:39:28.428Z,62.42
2023-01-19T13:41:58.229Z,61.46
2023-01-19T13:44:29.827Z,61.19
2023-01-19T13:46:59.357Z,62.56
2023-01-19T13:49:44.823Z,60.99
2023-01-19T13:52:16.994Z,60.49
2023-01-19T13:54:53.337Z,59.87
2023-01-19T13:57:31.623Z,61.38
2023-01-19T14:00:21.623Z,60.67
2023-01-19T14:02:59.272Z,61.66
2023-01-19T14:05:38.045Z,60.77
2023-01-19T14:08:11.415Z,61.08
2023-01-19T14:10:40.909Z,61.66
2023-01-19T14:13:16.979Z,63.03
2023-01-19T14:15:45.200Z,61.72
2023-01-19T14:18:17.989Z,61.35
2023-01-19T14:21:11.831Z,62.14
2023-01-19T14:23:43.416Z,63.07
2023-01-19T14:26:46.913Z,63.32
2023-01-19T14:29:18.017Z,61.75
2023-01-19T14:31:47.057Z,62.85
2023-01-19T14:34:35.178Z,63.52
2023-01-19T14:37:04.172Z,64.21
2023-01-19T14:39:34.651Z,63.77
2023-01-19T14:42:04.054Z,64.39
2023-01-19T14:44:40.488Z,65.92
2023-01-19T14:47:38.919Z,66.21
2023-01-19T14:50:17.808Z,65.98
2023-01-19T14:53:00.132Z,67.82
2023-01-19T14:55:43.571Z,69.54
2023-01-19T14:58:12.348Z,68.16
2023-01-19T15:00:40.001Z,68.07
2023-01-19T15:03:06.942Z,68.19
2023-01-19T15:05:33.789Z,66.54
2023-01-19T15:08:02.945Z,67.40
2023-01-19T15:10:45.310Z,67.49
2023-01-19T15:13:20.531Z,68.17
2023-01-19T15:15:47.198Z,68.59
2023-01-19T15:18:21.016Z,69.38
2023-01-19T15:20:47.598Z,70.34
2023-01-19T15:23:14.140Z,71.09
2023-01-19T15:25:40.836Z,69.25
2023-01-19T15:28:16.804Z,70.64
2023-01-19T15:30:43.842Z,69.79
2023-01-19T15:33:21.475Z,69.43
2023-01-19T15:35:48.377Z,71.27
2023-01-19T15:38:15.229Z,71.13
2023-01-19T15:40:41.799Z,69.80
2023-01-19T15:43:11.443Z,71.62
2023-01-19T15:45:41.744Z,71.97
2023-01-19T15:48:11.194Z,70.08
2023-01-19T15:50:40.477Z,71.28
2023-01-19T15:53:11.963Z,71.53
2023-01-19T15:55:38.522Z,71.06
2023-01-19T15:58:05.330Z,72.06
2023-01-19T16:00:33.652Z,70.10
2023-01-19T16:03:02.045Z,70.50
2023-01-19T16:05:41.981Z,71.18
2023-01-19T16:08:10.379Z,73.06
2023-01-19T16:10:38.979Z,72.25
2023-01-19T16:13:09.368Z,72.32
2023-01-19T16:15:37.338Z,72.81
2023-01-19T16:18:05.362Z,71.03
2023-01-19T16:20:32.230Z,72.46
2023-01-19T16:23:13.835Z,74.07
2023-01-19T16:25:41.488Z,72.39
2023-01-19T16:28:08.451Z,72.71
2023-01-19T16:30:35.367Z,71.25
2023-01-19T16:33:02.088Z,72.52
2023-01-19T16:35:28.668Z,70.76
2023-01-19T16:37:55.267Z,71.84
2023-01-19T16:40:21.961Z,70.99
2023-01-19T16:42:48.647Z,70.95
2023-01-19T16:45:15.261Z,71.63
2023-01-19T16:47:41.962Z,72.26
2023-01-19T16:50:11.705Z,72.52
2023-01-19T16:52:38.678Z,71.48
2023-01-19T16:55:09.344Z,71.82
2023-01-19T16:57:38.809Z,70.75
2023-01-19T17:00:09.348Z,72.51
2023-01-19T17:02:36.349Z,73.65
2023-01-19T17:05:02.957Z,74.06
2023-01-19T17:07:29.517Z,73.25
2023-01-19T17:09:56.214Z,72.65
2023-01-19T17:12:23.130Z,73.15
2023-01-19T17:14:49.723Z,73.78
2023-01-19T17:17:16.323Z,73.05
2023-01-19T17:19:45.040Z,73.15
2023-01-19T17:22:12.905Z,73.90
2023-01-19T17:24:42.346Z,73.88
2023-01-19T17:27:10.194Z,73.66
2023-01-19T17:29:36.951Z,73.05
2023-01-19T17:32:04.006Z,71.93
2023-01-19T17:34:30.566Z,71.86
2023-01-19T17:37:02.962Z,72.50
2023-01-19T17:39:29.990Z,73.40
2023-01-19T17:41:56.622Z,73.51
2023-01-19T17:44:23.466Z,73.92
2023-01-19T17:46:50.066Z,73.13
2023-01-19T17:49:16.632Z,73.11
2023-01-19T17:51:43.229Z,72.69
2023-01-19T17:54:10.890Z,71.64
2023-01-19T17:56:38.611Z,72.74
2023-01-19T17:59:07.662Z,73.58
2023-01-19T18:01:38.149Z,73.73
2023-01-19T18:04:05.316Z,72.50
2023-01-19T18:06:31.908Z,72.60
2023-01-19T18:08:59.343Z,72.51
2023-01-19T18:11:27.070Z,72.42
2023-01-19T18:13:53.760Z,70.95
2023-01-19T18:16:25.886Z,72.13
2023-01-19T18:18:53.924Z,71.57
2023-01-19T18:21:21.882Z,71.50
2023-01-19T18:23:50.183Z,71.81
2023-01-19T18:26:19.268Z,71.18
2023-01-19T18:28:46.618Z,71.90
2023-01-19T18:31:15.644Z,72.17
2023-01-19T18:33:42.551Z,70.64
2023-01-19T18:36:10.124Z,70.98
2023-01-19T18:38:37.963Z,70.45
2023-01-19T18:41:11.250Z,71.05
2023-01-19T18:43:38.434Z,71.17
2023-01-19T18:46:05.708Z,70.98
2023-01-19T18:48:32.548Z,70.93
2023-01-19T18:51:03.323Z,70.72
2023-01-19T18:53:31.502Z,71.14
2023-01-19T18:56:01.847Z,71.70
2023-01-19T18:58:29.946Z,70.75
2023-01-19T19:00:57.156Z,70.70
2023-01-19T19:03:24.162Z,71.17
2023-01-19T19:05:50.801Z,71.86
2023-01-19T19:08:17.481Z,72.38
2023-01-19T19:10:44.475Z,72.46
2023-01-19T19:13:15.869Z,72.17
2023-01-19T19:15:44.341Z,71.87
2023-01-19T19:18:14.079Z,72.66
2023-01-19T19:20:44.348Z,72.45
2023-01-19T19:23:11.760Z,73.71
2023-01-19T19:25:38.554Z,72.44
2023-01-19T19:28:05.252Z,74.21
2023-01-19T19:30:34.313Z,71.91
2023-01-19T19:33:01.110Z,72.72
2023-01-19T19:35:27.804Z,73.85
2023-01-19T19:37:57.543Z,72.38
2023-01-19T19:40:28.489Z,73.39
2023-01-19T19:42:57.662Z,73.61
2023-01-19T19:45:25.253Z,72.25
2023-01-19T19:47:51.771Z,73.16
2023-01-19T19:50:18.478Z,73.82
2023-01-19T19:52:45.047Z,73.88
2023-01-19T19:55:12.710Z,74.31
2023-01-19T19:57:39.386Z,72.64
2023-01-19T20:00:06.697Z,73.06
2023-01-19T20:02:33.387Z,71.74
2023-01-19T20:04:59.985Z,73.11
2023-01-19T20:07:26.690Z,72.85
2023-01-19T20:09:55.056Z,73.69
2023-01-19T20:12:21.908Z,72.52
2023-01-19T20:14:48.467Z,73.57
2023-01-19T20:17:15.110Z,73.17
2023-01-19T20:19:41.724Z,73.03
2023-01-19T20:22:08.260Z,73.53
2023-01-19T20:24:37.156Z,75.01
2023-01-19T20:27:03.857Z,74.70
2023-01-19T20:29:30.680Z,75.78
2023-01-19T20:31:57.645Z,74.95
2023-01-19T20:34:28.161Z,74.47
2023-01-19T20:36:55.102Z,75.16
2023-01-19T20:39:23.290Z,75.23
2023-01-19T20:41:51.432Z,75.35
2023-01-19T20:44:24.225Z,74.45
2023-01-19T20:46:51.542Z,75.22
2023-01-19T20:49:18.447Z,73.69
2023-01-19T20:51:46.924Z,74.21
2023-01-19T20:54:16.265Z,74.26
2023-01-19T20:56:43.240Z,74.38
2023-01-19T20:59:11.544Z,74.46
2023-01-19T21:01:39.391Z,75.65
2023-01-19T21:04:06.182Z,74.53
2023-01-19T21:06:32.880Z,75.19
2023-01-19T21:08:59.560Z,72.81
2023-01-19T21:11:26.461Z,71.48
2023-01-19T21:13:56.038Z,70.88
2023-01-19T21:16:24.948Z,70.51
2023-01-19T21:18:51.624Z,70.53
2023-01-19T21:21:29.883Z,69.63
2023-01-19T21:23:58.931Z,69.95
2023-01-19T21:26:25.731Z,70.26
2023-01-19T21:28:52.425Z,70.02
2023-01-19T21:31:20.897Z,69.43
2023-01-19T21:33:49.149Z,70.34
2023-01-19T21:36:15.750Z,69.87
2023-01-19T21:38:42.392Z,71.00
2023-01-19T21:41:12.580Z,70.45
2023-01-19T21:43:41.846Z,70.30
2023-01-19T21:46:16.849Z,71.35
2023-01-19T21:48:43.532Z,70.35
2023-01-19T21:51:10.331Z,70.46
2023-01-19T21:53:37.384Z,70.46
2023-01-19T21:56:07.594Z,70.55
2023-01-19T21:58:34.256Z,70.98
2023-01-19T22:01:02.546Z,70.81
2023-01-19T22:03:29.745Z,71.40
2023-01-19T22:05:56.684Z,71.08
2023-01-19T22:08:24.086Z,70.83
2023-01-19T22:10:50.663Z,70.92
2023-01-19T22:13:17.244Z,72.29
2023-01-19T22:15:43.878Z,71.80
2023-01-19T22:18:10.444Z,72.54
2023-01-19T22:20:37.329Z,71.55
2023-01-19T22:23:03.947Z,72.48
2023-01-19T22:25:32.709Z,72.10
2023-01-19T22:27:59.400Z,72.62
2023-01-19T22:30:26.141Z,72.79
2023-01-19T22:32:53.303Z,72.32
2023-01-19T22:35:21.213Z,72.45
2023-01-19T22:37:47.782Z,72.77
2023-01-19T22:40:14.342Z,73.15
2023-01-19T22:42:44.371Z,73.52
2023-01-19T22:45:11.487Z,73.27
2023-01-19T22:47:38.247Z,73.70
2023-01-19T22:50:05.203Z,74.41
2023-01-19T22:52:31.724Z,74.06
2023-01-19T22:54:58.366Z,73.89
2023-01-19T22:57:24.976Z,75.48
2023-01-19T22:59:51.549Z,76.39
2023-01-19T23:02:20.629Z,76.45
2023-01-19T23:04:47.386Z,76.88
2023-01-19T23:07:13.933Z,77.52
2023-01-19T23:09:40.487Z,75.66
2023-01-19T23:12:07.052Z,74.68
2023-01-19T23:14:33.687Z,74.52
2023-01-19T23:17:00.266Z,75.41
2023-01-19T23:19:26.866Z,74.95
2023-01-19T23:21:53.510Z,75.43
2023-01-19T23:24:20.211Z,75.27
2023-01-19T23:26:49.255Z,75.25
2023-01-19T23:29:15.924Z,75.89
2023-01-19T23:31:45.695Z,75.64
2023-01-19T23:34:13.146Z,75.58
2023-01-19T23:36:41.003Z,75.87
2023-01-19T23:39:18.290Z,75.71
2023-01-19T23:41:45.015Z,76.08
2023-01-19T23:44:11.657Z,76.16
2023-01-19T23:46:38.658Z,76.96
2023-01-19T23:49:05.431Z,76.59
2023-01-19T23:51:33.493Z,77.49
2023-01-19T23:54:01.039Z,76.73
2023-01-19T23:56:33.447Z,76.76
2023-01-19T23:59:06.386Z,76.67
